AirNav   ProFlight Series 2 Aviation Headset
 
 913 users online  

3R8 Scottsburg Airport
Scottsburg, Indiana, USA

GOING TO SCOTTSBURG?


FAA INFORMATION EFFECTIVE 16 JULY 2020

Location

FAA Identifier: 3R8
Lat/Long: 38-39-27.7200N 085-47-26.1050W
38-39.462000N 085-47.435083W
38.6577000,-85.7905847
(estimated)
Elevation: 600 ft. / 183 m (estimated)
Variation: 02W (1985)
From city: 3 miles SW of SCOTTSBURG, IN
Time zone: UTC -4 (UTC -5 during Standard Time)
Zip code: 47170

Airport Operations

Airport use: Open to the public
Activation date: 10/1974
Control tower: no
ARTCC: INDIANAPOLIS CENTER
FSS: TERRE HAUTE FLIGHT SERVICE STATION
NOTAMs facility: HUF (NOTAM-D service available)
Attendance: IREG
Wind indicator: yes
Segmented circle: yes

Airport Communications

CTAF: 122.9
WX AWOS-3 at IMS (16 nm E): 119.175 (812-866-1798)
WX AWOS-3 at SER (17 nm N): 119.425 (812-522-4244)
WX AWOS-3 at JVY (18 nm S): 118.575 (812-246-1278)

Nearby radio navigation aids

VOR radial/distance  VOR name  Freq  Var
IIUr342/34.7LOUISVILLE VORTAC114.8001E

 
NDB name  Hdg/Dist  Freq  Var  ID
CATCH349/11.333102WJV .--- ...-

Airport Services

Parking: hangars and tiedowns
Airframe service: NONE
Powerplant service: NONE

Runway Information

Runway 2/20

Dimensions: 2750 x 100 ft. / 838 x 30 m
Surface: turf, in good condition
Runway edge markings: MKD BY ORANGE CONES.
Operational restrictions: THLD & DSPLCD THLD MKD BY ORANGE TFC CONES.
RUNWAY 2  RUNWAY 20
Latitude: 38-39.253500N38-39.670500N
Longitude: 085-47.548000W085-47.322167W
Elevation: 605.0 ft.600.0 ft.
Traffic pattern: leftleft
Markings: NSTDNSTD
Obstructions: 60 ft. trees, 745 ft. from runway, 200 ft. right of centerline, 12:1 slope to clear
APCH SLOPE 20:1 FM DSPLCD THR.
60 ft. trees, 20 ft. from runway, 125 ft. right of centerline
APCH SLOPE 15:1 FM DSPLCD THR.

Airport Ownership and Management from official FAA records

Ownership: Privately-owned
Owner: TOM FITCH/LARRY BECKLEY
2527 LAKE ROAD S.
SCOTTSBURG, IN 47170
Phone 812-752-6631
Manager: LARRY BECKLEY
2527 LAKE ROAD S.
SCOTTSBURG, IN 47170
Phone 812-752-6631

Airport Operational Statistics

Aircraft based on the field: 20
Single engine airplanes: 2
Ultralights: 18
    
Aircraft operations: avg 67/month *
72% local general aviation
28% transient general aviation
* for 12-month period ending 31 December 2018

Additional Remarks

ARPT CLSD DEC 1 TO APR 1.
TREES ALL QUADS.
FOR CD CTC LOUISVILLE APCH AT 502-375-7499

Instrument Procedures

There are no published instrument procedures at 3R8.

Some nearby airports with instrument procedures:

KIMS - Madison Municipal Airport (16 nm E)
KSER - Freeman Municipal Airport (17 nm N)
KJVY - Clark Regional Airport (18 nm S)
KOVO - North Vernon Airport (25 nm N)
KLOU - Bowman Field Airport (26 nm S)
 
Loc | Ops | Rwys | IFR | FBO | Links
Com | Nav | Svcs | Stats | Notes
Area around 3R8 (Scottsburg Airport)
 
Road maps at: MapQuest Bing Google
 
Aerial photo
WARNING: Photo may not be current or correct
Aerial photo of 3R8 (Scottsburg Airport)
Do you have a better or more recent aerial photo of Scottsburg Airport that you would like to share? If so, please send us your photo.

 
Sectional chart

 
Airport distance calculator
Flying to Scottsburg Airport? Find the distance to fly.

From to 3R8

Sunrise and sunset
Times for 07-Aug-2020
 Local
(UTC-4)
 Zulu
(UTC)
Morning civil twilight06:2310:23
Sunrise06:5210:52
Sunset20:4600:46
Evening civil twilight21:1501:15

Current date and time
Zulu (UTC)  08-Aug-2020 02:11:25
Local (UTC-4)  07-Aug-2020 22:11:25
 
METAR
KIMS 
16nm E 
080155Z AUTO 00000KT 10SM CLR 17/17 A3018 RMK AO1
KJVY 
18nm S 
071955Z AUTO 07004KT 10SM SCT060 27/15 A3013 RMK AO2 T02740148
KLOU 
27nm S 
080153Z 00000KT 10SM CLR 23/15 A3014 RMK AO2 SLP201 T02280150 $
KSDF 
29nm S 
080156Z 01007KT 10SM FEW210 24/14 A3014 RMK AO2 SLP201 T02440144
TAF
KSDF 
29nm S 
071720Z 0718/0824 36007KT P6SM SCT050 FM080100 VRB03KT P6SM SKC TEMPO 0811/0813 5SM BR
NOTAMs
Click for the latest NOTAMs
NOTAMs are issued by the DoD/FAA and will open in a separate window not controlled by AirNav.

 

 
 

Would you like to see your business listed on this page?

 If your business provides an interesting product or service to pilots, flight crews, aircraft, or users of the Scottsburg Airport, you should consider listing it here.  To start the listing process, click on the button below
 
Add a business
 

Other Pages about Scottsburg Airport

Update a link
 
Copyright © AirNav, LLC. All rights reserved. Privacy Policy  Contact